Time;durP1;ratioP1;P1;durP2;ratioP2;P2;SDS_P1;SDS_P2;PMS_P1;PMS_P2;Temp;Humidity;BMP_temperature;BMP_pressure;BME280_temperature;BME280_humidity;BME280_pressure;Samples;Min_cycle;Max_cycle;Signal;HPM_P1;HPM_P2
2023/12/07 00:00:17;;;;;;;12.05;6.85;;;;;;;25.15;33.32;99380.03;4332651;33;34929;-62
2023/12/07 00:02:45;;;;;;;13.18;7.32;;;;;;;25.13;33.29;99378.63;4337150;33;33447;-62
2023/12/07 00:05:13;;;;;;;11.00;6.43;;;;;;;25.12;33.36;99388.72;4334750;33;34036;-62
2023/12/07 00:07:40;;;;;;;14.23;7.45;;;;;;;25.11;33.37;99388.97;4332007;33;33375;-62
2023/12/07 00:10:08;;;;;;;12.82;6.37;;;;;;;25.09;33.42;99393.88;4339261;33;33979;-63
2023/12/07 00:12:38;;;;;;;10.95;6.70;;;;;;;25.08;33.42;99395.75;4338070;33;33614;-62
2023/12/07 00:15:06;;;;;;;11.40;6.50;;;;;;;25.08;33.45;99392.19;4347513;33;34517;-62
2023/12/07 00:17:34;;;;;;;14.60;6.85;;;;;;;25.07;33.40;99387.78;4347306;33;34055;-62
2023/12/07 00:20:04;;;;;;;11.70;6.07;;;;;;;25.04;33.40;99391.00;4347258;33;34079;-62
2023/12/07 00:22:31;;;;;;;13.38;7.03;;;;;;;25.03;33.42;99383.87;4347373;32;33595;-63
2023/12/07 00:24:59;;;;;;;16.17;6.20;;;;;;;25.02;33.50;99391.25;4340618;33;34798;-62
2023/12/07 00:27:26;;;;;;;12.35;6.78;;;;;;;25.00;33.52;99389.84;4332522;33;34813;-61
2023/12/07 00:29:54;;;;;;;12.32;6.60;;;;;;;24.99;33.52;99389.00;4332361;33;34289;-62
2023/12/07 00:32:22;;;;;;;10.93;6.78;;;;;;;24.97;33.59;99388.44;4318152;33;33655;-62
2023/12/07 00:34:50;;;;;;;10.75;6.50;;;;;;;24.97;33.58;99393.88;4332439;33;34552;-62
2023/12/07 00:37:17;;;;;;;10.80;6.00;;;;;;;24.95;33.59;99390.59;4332656;33;33790;-61
2023/12/07 00:39:45;;;;;;;9.57;5.72;;;;;;;24.93;33.56;99390.00;4332702;33;34117;-61
2023/12/07 00:42:12;;;;;;;11.68;6.00;;;;;;;24.92;33.68;99388.34;4332352;33;33260;-61
2023/12/07 00:44:40;;;;;;;10.68;6.57;;;;;;;24.89;33.61;99392.38;4332334;33;33723;-60
2023/12/07 00:47:08;;;;;;;11.80;6.85;;;;;;;24.89;33.63;99392.38;4332510;33;33829;-60
2023/12/07 00:49:40;;;;;;;10.25;6.00;;;;;;;24.88;33.64;99396.19;4332370;33;34492;-62
2023/12/07 00:52:08;;;;;;;9.98;6.00;;;;;;;24.86;33.75;99395.62;4319112;33;32911;-62
2023/12/07 00:54:36;;;;;;;12.57;6.40;;;;;;;24.86;33.70;99397.53;4332405;33;34925;-62
2023/12/07 00:57:04;;;;;;;15.20;6.18;;;;;;;24.84;33.75;99396.94;4332321;33;33950;-61
2023/12/07 00:59:33;;;;;;;11.20;5.68;;;;;;;24.84;33.86;99395.03;4332352;33;34864;-62
2023/12/07 01:02:01;;;;;;;8.60;4.97;;;;;;;24.83;33.89;99395.28;4332364;33;33491;-61
2023/12/07 01:04:29;;;;;;;11.75;6.10;;;;;;;24.82;33.86;99399.09;4332275;33;33982;-62
2023/12/07 01:06:57;;;;;;;13.88;6.20;;;;;;;24.82;33.86;99396.34;4332355;33;34036;-62
2023/12/07 01:09:25;;;;;;;12.68;5.53;;;;;;;24.80;33.86;99395.75;4332355;33;34805;-61
2023/12/07 01:11:53;;;;;;;9.85;5.80;;;;;;;24.79;33.92;99391.37;4332477;33;33240;-61
2023/12/07 01:14:21;;;;;;;10.38;6.45;;;;;;;24.79;33.91;99391.37;4332300;33;34881;-62
2023/12/07 01:16:48;;;;;;;14.60;5.68;;;;;;;24.78;33.89;99389.72;4332591;33;34190;-62
2023/12/07 01:19:16;;;;;;;14.50;6.47;;;;;;;24.76;33.90;99389.13;4332038;33;35054;-62
2023/12/07 01:21:44;;;;;;;15.23;6.35;;;;;;;24.75;33.92;99382.03;4330799;33;33762;-61
2023/12/07 01:24:11;;;;;;;9.82;5.50;;;;;;;24.74;34.00;99383.09;4324113;33;34258;-62
2023/12/07 01:26:43;;;;;;;11.05;5.97;;;;;;;24.73;33.95;99376.00;4332211;33;34059;-62
2023/12/07 01:29:11;;;;;;;11.52;6.07;;;;;;;24.71;34.16;99378.94;4332419;33;34098;-62
2023/12/07 01:31:39;;;;;;;11.55;5.90;;;;;;;24.71;34.06;99372.66;4332232;33;33548;-58
2023/12/07 01:34:07;;;;;;;11.63;5.72;;;;;;;24.69;34.05;99373.75;4332190;33;34748;-62
2023/12/07 01:36:35;;;;;;;12.80;6.22;;;;;;;24.68;34.09;99374.84;4332071;33;34015;-60
2023/12/07 01:39:03;;;;;;;11.48;5.57;;;;;;;24.68;34.06;99377.56;4331640;33;33926;-60
2023/12/07 01:41:30;;;;;;;11.23;5.90;;;;;;;24.67;34.10;99378.63;4332048;33;34081;-62
2023/12/07 01:43:58;;;;;;;11.80;6.25;;;;;;;24.64;34.07;99373.66;4331672;33;34805;-63
2023/12/07 01:46:26;;;;;;;10.80;5.45;;;;;;;24.64;34.04;99375.56;4330608;33;32637;-62
2023/12/07 01:48:53;;;;;;;9.45;5.37;;;;;;;24.63;34.05;99372.00;4332082;33;34087;-60
2023/12/07 01:51:21;;;;;;;9.57;5.72;;;;;;;24.63;34.09;99374.75;4318657;33;33643;-62
2023/12/07 01:53:48;;;;;;;10.95;5.50;;;;;;;24.62;34.15;99372.25;4331767;33;33481;-60
2023/12/07 01:56:16;;;;;;;9.82;5.70;;;;;;;24.60;34.08;99367.03;4318524;33;33954;-61
2023/12/07 01:58:44;;;;;;;12.02;5.72;;;;;;;24.58;34.09;99361.00;4331815;33;33577;-62
2023/12/07 02:01:12;;;;;;;10.35;5.35;;;;;;;24.58;34.13;99368.37;4318501;33;34003;-62
2023/12/07 02:03:40;;;;;;;10.52;5.70;;;;;;;24.57;34.13;99372.16;4331732;33;33335;-62
2023/12/07 02:06:08;;;;;;;9.65;5.75;;;;;;;24.57;34.12;99377.59;4331705;33;35026;-62
2023/12/07 02:08:40;;;;;;;10.30;5.57;;;;;;;24.55;34.19;99375.13;4318114;33;34191;-61
2023/12/07 02:11:09;;;;;;;10.00;5.12;;;;;;;24.55;34.23;99379.75;4331687;33;33763;-62
2023/12/07 02:13:37;;;;;;;11.32;4.90;;;;;;;24.54;34.24;99375.37;4331617;33;34265;-61
2023/12/07 02:16:08;;;;;;;10.32;5.53;;;;;;;24.53;34.24;99377.28;4318129;33;35271;-62
2023/12/07 02:18:42;;;;;;;8.50;5.20;;;;;;;24.52;34.26;99372.06;4318322;33;33922;-60
2023/12/07 02:21:16;;;;;;;8.50;5.15;;;;;;;24.51;34.35;99365.78;4331423;33;33720;-60
2023/12/07 02:23:43;;;;;;;12.82;5.82;;;;;;;24.52;34.33;99370.16;4318404;33;34025;-62
2023/12/07 02:26:19;;;;;;;10.95;5.07;;;;;;;24.50;34.33;99368.75;4319048;33;33981;-61
2023/12/07 02:28:47;;;;;;;10.38;6.05;;;;;;;24.49;34.32;99370.66;4306432;33;33689;-62
2023/12/07 02:31:15;;;;;;;9.38;5.35;;;;;;;24.48;34.34;99366.28;4331357;33;34330;-62
2023/12/07 02:33:42;;;;;;;10.05;5.65;;;;;;;24.48;34.31;99379.06;4331245;33;34661;-61
2023/12/07 02:36:11;;;;;;;9.95;5.20;;;;;;;24.46;34.30;99370.31;4331333;33;34953;-61
2023/12/07 02:38:38;;;;;;;11.02;5.80;;;;;;;24.46;34.38;99373.03;4317763;33;34699;-62
2023/12/07 02:41:06;;;;;;;8.73;5.12;;;;;;;24.45;34.40;99374.94;4317830;33;33512;-63
2023/12/07 02:43:34;;;;;;;11.35;5.28;;;;;;;24.44;34.42;99370.56;4306077;33;34086;-62
2023/12/07 02:46:02;;;;;;;13.50;6.15;;;;;;;24.43;34.47;99375.19;4318274;33;34142;-62
2023/12/07 02:48:30;;;;;;;11.63;5.30;;;;;;;24.42;34.48;99372.69;4317847;33;34623;-62
2023/12/07 02:50:58;;;;;;;11.15;5.45;;;;;;;24.40;34.44;99375.66;4317953;33;33350;-61
2023/12/07 02:53:25;;;;;;;9.20;5.18;;;;;;;24.40;34.46;99377.56;4331102;33;34121;-59
2023/12/07 02:55:53;;;;;;;10.07;5.72;;;;;;;24.38;34.51;99375.06;4332214;33;33816;-62
2023/12/07 02:58:20;;;;;;;9.00;4.68;;;;;;;24.38;34.49;99372.34;4333137;33;35088;-62
2023/12/07 03:00:48;;;;;;;10.20;4.97;;;;;;;24.36;34.54;99373.63;4332893;33;33642;-62
2023/12/07 03:03:15;;;;;;;9.40;5.05;;;;;;;24.35;34.60;99375.53;4333285;33;33252;-62
2023/12/07 03:05:44;;;;;;;11.32;5.28;;;;;;;24.34;34.60;99382.06;4333217;33;35434;-62
2023/12/07 03:08:11;;;;;;;10.55;5.45;;;;;;;24.33;34.69;99377.66;4333150;33;33706;-62
2023/12/07 03:10:39;;;;;;;10.18;5.00;;;;;;;24.33;34.58;99387.75;4333030;33;33563;-61
2023/12/07 03:13:07;;;;;;;8.90;4.80;;;;;;;24.33;34.65;99393.19;4333205;33;33671;-62
2023/12/07 03:15:34;;;;;;;9.38;4.68;;;;;;;24.34;34.67;99394.84;4333139;33;33968;-61
2023/12/07 03:18:02;;;;;;;10.00;5.30;;;;;;;24.32;34.69;99395.09;4332939;33;34089;-62
2023/12/07 03:20:30;;;;;;;8.23;5.10;;;;;;;24.31;34.72;99390.72;4319733;33;34312;-62
2023/12/07 03:22:57;;;;;;;8.23;5.20;;;;;;;24.30;34.73;99390.97;4333107;33;34738;-63
2023/12/07 03:25:25;;;;;;;7.65;4.55;;;;;;;24.30;34.75;99389.06;4332884;33;33736;-62
2023/12/07 03:27:53;;;;;;;11.82;5.03;;;;;;;24.29;34.74;99392.84;4333002;33;33995;-62
2023/12/07 03:30:20;;;;;;;9.48;5.30;;;;;;;24.28;34.81;99398.56;4333308;33;33542;-62
2023/12/07 03:32:48;;;;;;;8.38;4.47;;;;;;;24.27;34.78;99400.44;4332839;33;34006;-63
2023/12/07 03:35:16;;;;;;;8.23;5.03;;;;;;;24.26;34.81;99401.53;4332970;33;34862;-62
2023/12/07 03:37:44;;;;;;;8.27;4.95;;;;;;;24.26;34.76;99395.25;4332820;33;34107;-62
2023/12/07 03:40:12;;;;;;;9.00;4.50;;;;;;;24.27;34.70;99407.81;4332567;33;33110;-62
2023/12/07 03:42:40;;;;;;;7.45;4.45;;;;;;;24.25;34.73;99407.19;4333186;33;34826;-62
2023/12/07 03:45:23;;;;;;;8.55;4.30;;;;;;;24.24;34.77;99400.09;4332790;33;34771;-63
2023/12/07 03:47:51;;;;;;;9.63;5.60;;;;;;;24.24;34.80;99405.56;4332877;33;34236;-63
2023/12/07 03:50:18;;;;;;;8.45;4.55;;;;;;;24.22;34.88;99410.44;4332776;33;33781;-63
2023/12/07 03:52:46;;;;;;;8.95;4.50;;;;;;;24.21;34.79;99398.69;4332662;33;34098;-62
2023/12/07 03:55:14;;;;;;;9.05;4.70;;;;;;;24.21;34.82;99411.50;4332867;33;35172;-62
2023/12/07 03:57:42;;;;;;;7.90;5.07;;;;;;;24.19;34.83;99407.09;4333136;33;33711;-63
2023/12/07 04:00:11;;;;;;;7.50;4.15;;;;;;;24.18;34.87;99407.34;4332632;33;33548;-62
2023/12/07 04:02:39;;;;;;;7.68;4.40;;;;;;;24.18;34.85;99408.19;4319679;33;34702;-62
2023/12/07 04:05:06;;;;;;;9.40;4.65;;;;;;;24.18;34.79;99410.91;4332804;33;35090;-62
2023/12/07 04:07:34;;;;;;;9.25;5.07;;;;;;;24.17;34.83;99416.59;4332335;33;33976;-63
2023/12/07 04:10:05;;;;;;;8.40;4.55;;;;;;;24.15;34.88;99405.09;4332829;33;33238;-62
2023/12/07 04:12:32;;;;;;;8.57;4.70;;;;;;;24.14;34.82;99412.44;4332960;33;33573;-62
2023/12/07 04:15:00;;;;;;;8.32;4.50;;;;;;;24.14;34.86;99425.25;4332619;33;34274;-62
2023/12/07 04:17:28;;;;;;;8.48;4.32;;;;;;;24.13;34.83;99427.16;4332936;33;34588;-62
2023/12/07 04:19:55;;;;;;;8.10;4.72;;;;;;;24.13;34.84;99429.87;4332569;33;33531;-62
2023/12/07 04:22:23;;;;;;;9.65;4.60;;;;;;;24.13;34.91;99423.59;4332515;33;33539;-61
2023/12/07 04:24:51;;;;;;;10.77;4.93;;;;;;;24.11;34.88;99423.84;4332697;33;33824;-62
2023/12/07 04:27:18;;;;;;;10.55;4.20;;;;;;;24.10;34.90;99424.91;4332592;33;33985;-63
2023/12/07 04:29:46;;;;;;;8.68;4.55;;;;;;;24.11;34.93;99431.22;4332805;33;33584;-64
2023/12/07 04:32:14;;;;;;;8.40;4.28;;;;;;;24.09;34.97;99434.16;4332620;33;34756;-64
2023/12/07 04:34:41;;;;;;;8.85;4.75;;;;;;;24.09;34.97;99434.16;4332885;33;33793;-65
2023/12/07 04:37:09;;;;;;;10.80;4.45;;;;;;;24.08;34.97;99437.94;4332808;33;34301;-64
2023/12/07 04:39:37;;;;;;;8.40;4.78;;;;;;;24.07;35.04;99427.31;4332393;33;34428;-65
2023/12/07 04:42:04;;;;;;;8.52;4.40;;;;;;;24.07;35.08;99439.03;4332542;33;34124;-64
2023/12/07 04:44:35;;;;;;;8.45;4.57;;;;;;;24.06;35.01;99434.66;4332190;33;34980;-64
2023/12/07 04:47:03;;;;;;;8.93;4.93;;;;;;;24.05;35.00;99438.41;4332708;33;34657;-65
2023/12/07 04:49:30;;;;;;;11.30;4.43;;;;;;;24.05;34.98;99445.78;4332406;33;34439;-62
2023/12/07 04:51:58;;;;;;;9.38;4.47;;;;;;;24.03;35.01;99443.28;4319254;33;33792;-64
2023/12/07 04:54:27;;;;;;;8.57;4.65;;;;;;;24.06;35.01;99450.16;4332625;33;33588;-64
2023/12/07 04:56:54;;;;;;;8.30;4.45;;;;;;;24.05;35.04;99451.22;4588698;27;33990;-84
2023/12/07 05:05:36;;;;;;;8.63;4.25;;;;;;;24.04;35.06;99452.28;4520298;27;20091;-78
2023/12/07 05:08:06;;;;;;;22.98;4.45;;;;;;;24.03;35.20;99461.53;4376640;32;34455;-91
2023/12/07 05:10:34;;;;;;;12.85;4.12;;;;;;;24.00;35.25;99457.38;4376625;32;34825;-64
2023/12/07 05:13:02;;;;;;;16.87;5.35;;;;;;;24.02;35.21;99466.16;4765817;27;35241;-75
2023/12/07 05:24:18;;;;;;;10.18;4.20;;;;;;;23.97;34.07;99471.50;4360423;32;33909;-64
2023/12/07 05:26:46;;;;;;;9.45;4.30;;;;;;;23.93;34.40;99478.50;4361880;32;34095;-64
2023/12/07 05:29:14;;;;;;;12.90;4.05;;;;;;;23.90;34.46;99477.06;4361788;32;34580;-65
2023/12/07 05:31:42;;;;;;;11.68;3.97;;;;;;;23.91;34.48;99486.06;4348170;32;33823;-64
2023/12/07 05:34:09;;;;;;;10.50;3.60;;;;;;;23.88;34.53;99483.84;4348223;32;33547;-64
2023/12/07 05:36:37;;;;;;;7.75;3.53;;;;;;;23.87;34.48;99488.44;4361755;32;34063;-65
2023/12/07 05:39:07;;;;;;;8.95;3.12;;;;;;;23.86;34.52;99486.78;4361953;32;34012;-65
2023/12/07 05:41:34;;;;;;;9.77;3.70;;;;;;;23.85;34.60;99490.56;4361710;32;33595;-64
2023/12/07 05:44:03;;;;;;;7.78;3.65;;;;;;;23.85;34.70;99492.47;4348217;32;33952;-64
2023/12/07 05:46:32;;;;;;;11.55;3.87;;;;;;;23.85;34.69;99492.47;4360377;32;34878;-63
2023/12/07 05:49:00;;;;;;;12.48;3.55;;;;;;;23.86;34.70;99494.12;4360252;32;34698;-63
2023/12/07 05:51:27;;;;;;;9.18;3.37;;;;;;;23.85;34.69;99493.28;4360927;32;33695;-64
2023/12/07 05:53:55;;;;;;;5.80;3.10;;;;;;;23.85;34.69;99498.75;4361307;32;33887;-64
2023/12/07 05:56:23;;;;;;;9.10;3.80;;;;;;;23.87;34.72;99503.94;4360834;32;33656;-63
2023/12/07 05:58:50;;;;;;;7.85;3.22;;;;;;;23.87;34.73;99506.66;4363931;32;34029;-62
2023/12/07 06:01:18;;;;;;;13.23;3.80;;;;;;;23.88;34.71;99505.63;4357766;32;33180;-63
2023/12/07 06:03:47;;;;;;;7.75;3.37;;;;;;;23.87;34.71;99510.22;4375899;32;33825;-61
2023/12/07 06:06:14;;;;;;;8.32;3.90;;;;;;;23.87;34.73;99514.84;4361395;32;33859;-62
2023/12/07 06:08:44;;;;;;;8.77;3.97;;;;;;;23.87;34.74;99514.84;4361389;32;34104;-63
2023/12/07 06:11:12;;;;;;;7.12;3.33;;;;;;;23.86;34.69;99514.03;4361195;32;33122;-62
2023/12/07 06:13:39;;;;;;;6.25;3.17;;;;;;;23.87;34.69;99509.41;4361413;32;34190;-63
2023/12/07 06:16:08;;;;;;;9.27;3.35;;;;;;;23.87;34.71;99520.28;4361335;32;33769;-62
2023/12/07 06:18:37;;;;;;;6.20;2.83;;;;;;;23.85;34.70;99523.25;4350376;32;33929;-62
2023/12/07 06:21:06;;;;;;;7.85;2.80;;;;;;;23.85;34.65;99517.00;4375994;32;33783;-62
2023/12/07 06:23:34;;;;;;;5.80;2.90;;;;;;;23.84;34.59;99527.06;4362373;32;33954;-63
2023/12/07 06:26:02;;;;;;;9.65;3.35;;;;;;;23.82;34.56;99526.44;4347569;32;33508;-63
2023/12/07 06:28:30;;;;;;;5.90;2.83;;;;;;;23.81;34.54;99526.69;4347375;32;32630;-62
2023/12/07 06:31:04;;;;;;;7.70;3.53;;;;;;;23.80;34.47;99536.78;4349218;32;34562;-62
2023/12/07 06:33:32;;;;;;;5.85;2.90;;;;;;;23.77;34.48;99531.78;4348117;33;34027;-62
2023/12/07 06:35:59;;;;;;;8.40;3.00;;;;;;;23.77;34.42;99536.41;4348014;33;33908;-62
2023/12/07 06:38:27;;;;;;;6.57;3.00;;;;;;;23.75;34.38;99539.38;4348128;33;33931;-63
2023/12/07 06:40:56;;;;;;;6.25;3.00;;;;;;;23.73;34.36;99557.84;4347618;33;34125;-62
2023/12/07 06:43:23;;;;;;;6.97;2.97;;;;;;;23.73;34.30;99563.28;4347379;33;34790;-62
2023/12/07 06:45:51;;;;;;;5.10;3.10;;;;;;;23.71;34.28;99553.69;4346197;33;34218;-62
2023/12/07 06:48:19;;;;;;;5.85;2.97;;;;;;;23.68;34.29;99565.87;4348314;32;34593;-62
2023/12/07 06:50:47;;;;;;;7.05;3.40;;;;;;;23.66;34.24;99566.13;4347464;33;33303;-62
2023/12/07 06:53:15;;;;;;;8.52;3.20;;;;;;;23.66;34.20;99573.47;4347832;33;33723;-62
2023/12/07 06:55:43;;;;;;;5.78;3.00;;;;;;;23.64;34.20;99568.25;4345538;33;34762;-62
2023/12/07 06:58:13;;;;;;;5.50;3.10;;;;;;;23.63;34.20;99569.28;4347871;33;33789;-63
2023/12/07 07:00:40;;;;;;;6.00;2.83;;;;;;;23.62;34.17;99577.69;4348202;33;33517;-62
2023/12/07 07:03:09;;;;;;;8.13;3.45;;;;;;;23.59;34.17;99568.06;4347948;33;33971;-63
2023/12/07 07:05:36;;;;;;;5.97;3.10;;;;;;;23.58;34.15;99566.41;4348300;32;34874;-62
2023/12/07 07:08:04;;;;;;;6.72;3.10;;;;;;;23.57;34.13;99566.66;4348180;33;34127;-62
2023/12/07 07:10:32;;;;;;;6.15;3.15;;;;;;;23.56;34.13;99578.62;4334351;33;33704;-62
2023/12/07 07:13:05;;;;;;;6.78;3.12;;;;;;;23.55;34.11;99577.78;4334613;33;34211;-62
2023/12/07 07:15:33;;;;;;;6.87;3.10;;;;;;;23.53;34.12;99582.63;4347883;33;33847;-62
2023/12/07 07:18:00;;;;;;;7.47;3.40;;;;;;;23.53;34.08;99581.81;4347854;33;34641;-62
2023/12/07 07:20:28;;;;;;;7.10;3.22;;;;;;;23.51;34.06;99590.22;4347741;33;33625;-63
2023/12/07 07:22:56;;;;;;;5.70;2.97;;;;;;;23.49;34.10;99584.16;4347516;32;33856;-63
2023/12/07 07:25:24;;;;;;;6.47;3.22;;;;;;;23.48;34.20;99582.50;4347717;33;33994;-63
2023/12/07 07:27:52;;;;;;;5.72;3.30;;;;;;;23.48;34.27;99592.56;4347758;33;34198;-63
2023/12/07 07:30:21;;;;;;;6.12;2.87;;;;;;;23.48;34.29;99596.13;4347798;33;34254;-63
2023/12/07 07:32:49;;;;;;;5.80;2.90;;;;;;;23.48;34.29;99581.66;4347482;33;34099;-63
2023/12/07 07:35:17;;;;;;;5.53;2.75;;;;;;;23.48;34.32;99592.56;4334216;33;33671;-62
2023/12/07 07:37:45;;;;;;;6.43;3.10;;;;;;;23.48;34.32;99592.56;4347663;33;33955;-62
2023/12/07 07:40:12;;;;;;;5.15;3.00;;;;;;;23.48;34.32;99596.13;4347441;33;34330;-63
2023/12/07 07:42:40;;;;;;;6.78;2.70;;;;;;;23.48;34.34;99601.56;4347486;33;33694;-62
2023/12/07 07:45:09;;;;;;;6.70;3.40;;;;;;;23.48;34.33;99596.13;4347785;33;34009;-62
2023/12/07 07:47:37;;;;;;;8.23;3.10;;;;;;;23.49;34.32;99603.22;4347242;33;33796;-62
2023/12/07 07:50:06;;;;;;;8.23;3.17;;;;;;;23.49;34.29;99605.94;4340862;33;33379;-62
2023/12/07 07:52:34;;;;;;;5.57;3.05;;;;;;;23.49;34.28;99610.56;4332766;33;34912;-62
2023/12/07 07:55:05;;;;;;;6.80;3.10;;;;;;;23.49;34.28;99610.56;4332827;33;33362;-63
2023/12/07 07:57:33;;;;;;;7.28;3.15;;;;;;;23.49;34.31;99611.38;4329945;33;34038;-64
2023/12/07 08:00:01;;;;;;;5.82;2.72;;;;;;;23.51;34.26;99613.91;4347379;33;33786;-63
2023/12/07 08:02:31;;;;;;;6.62;3.22;;;;;;;23.50;34.26;99612.22;4334308;33;34554;-63
2023/12/07 08:04:58;;;;;;;5.25;2.70;;;;;;;23.50;34.24;99610.34;4347194;33;34631;-63
2023/12/07 08:07:26;;;;;;;5.43;2.70;;;;;;;23.51;34.23;99617.44;4347133;33;33946;-63
2023/12/07 08:09:54;;;;;;;5.65;2.83;;;;;;;23.51;34.22;99616.62;4347455;33;33088;-63
2023/12/07 08:12:24;;;;;;;6.12;3.30;;;;;;;23.51;34.22;99619.34;4321754;33;32365;-63
2023/12/07 08:14:52;;;;;;;5.30;2.85;;;;;;;23.51;34.21;99619.34;4335205;33;34003;-63
2023/12/07 08:17:21;;;;;;;5.80;2.80;;;;;;;23.51;34.21;99619.34;4319324;33;33504;-62
2023/12/07 08:19:49;;;;;;;6.47;3.22;;;;;;;23.50;34.23;99621.25;4332858;33;33679;-62
2023/12/07 08:22:17;;;;;;;6.10;3.10;;;;;;;23.52;34.18;99615.56;4334863;33;34008;-63
2023/12/07 08:24:44;;;;;;;7.10;2.90;;;;;;;23.51;34.19;99614.72;4347341;33;34072;-63
2023/12/07 08:27:21;;;;;;;7.43;2.90;;;;;;;23.51;34.23;99614.72;4347238;33;33769;-63
2023/12/07 08:29:49;;;;;;;6.75;2.90;;;;;;;23.52;34.19;99619.09;4347315;32;34458;-64
2023/12/07 08:32:19;;;;;;;6.07;2.78;;;;;;;23.52;34.23;99618.28;4334681;33;33554;-62
2023/12/07 08:34:46;;;;;;;6.30;3.37;;;;;;;23.51;34.20;99617.44;4347193;33;34907;-63
2023/12/07 08:37:14;;;;;;;8.35;2.78;;;;;;;23.53;34.19;99623.47;4347553;33;34185;-63
2023/12/07 08:39:41;;;;;;;6.43;2.90;;;;;;;23.52;34.19;99621.81;4347522;33;33175;-63
2023/12/07 08:42:09;;;;;;;5.87;2.72;;;;;;;23.52;34.19;99624.53;4347226;33;34106;-64
2023/12/07 08:44:36;;;;;;;6.10;2.80;;;;;;;23.52;34.21;99626.44;4347658;33;34034;-64
2023/12/07 08:47:04;;;;;;;6.40;3.15;;;;;;;23.53;34.27;99628.09;4347624;32;34279;-64
2023/12/07 08:49:32;;;;;;;6.07;2.62;;;;;;;23.53;34.23;99628.09;4347092;33;33784;-64
2023/12/07 08:52:00;;;;;;;7.20;2.97;;;;;;;23.53;34.23;99626.19;4346732;33;34006;-62
2023/12/07 08:54:48;;;;;;;6.75;2.70;;;;;;;23.53;34.21;99628.09;4347096;33;33612;-64
2023/12/07 08:57:17;;;;;;;6.30;2.47;;;;;;;23.54;34.18;99632.47;4347173;33;34238;-63
2023/12/07 08:59:44;;;;;;;5.37;2.85;;;;;;;23.53;34.17;99622.66;4346162;33;34275;-63
2023/12/07 09:02:12;;;;;;;5.32;2.80;;;;;;;23.54;34.15;99624.31;4347104;33;34027;-64
2023/12/07 09:04:41;;;;;;;5.07;2.42;;;;;;;23.53;34.17;99619.94;4347549;32;34001;-61
2023/12/07 09:07:09;;;;;;;8.07;5.78;;;;;;;23.51;34.15;99622.91;4347193;33;34863;-59
2023/12/07 09:09:37;;;;;;;8.43;5.57;;;;;;;23.49;30.09;99630.44;4347083;33;34248;-59
2023/12/07 09:12:05;;;;;;;7.82;5.35;;;;;;;23.26;28.87;99627.63;4347131;33;33587;-59
2023/12/07 09:14:32;;;;;;;7.05;4.53;;;;;;;23.20;30.11;99625.81;4347181;33;33694;-60
2023/12/07 09:17:00;;;;;;;8.90;4.45;;;;;;;23.19;31.65;99625.00;4346880;33;34717;-60
2023/12/07 09:19:27;;;;;;;6.68;4.12;;;;;;;23.22;31.60;99629.13;4347122;33;32559;-59
2023/12/07 09:21:55;;;;;;;6.87;3.95;;;;;;;23.25;31.40;99625.97;4352820;32;34839;-62
2023/12/07 09:24:23;;;;;;;6.78;3.75;;;;;;;23.32;31.42;99630.28;4359715;32;34984;-59
2023/12/07 09:26:50;;;;;;;5.50;3.30;;;;;;;23.43;31.48;99625.94;4346191;33;33939;-59
2023/12/07 09:29:18;;;;;;;5.07;3.05;;;;;;;23.56;31.55;99624.91;4347101;33;33291;-61
2023/12/07 09:31:45;;;;;;;6.85;3.45;;;;;;;23.70;31.60;99623.69;4353978;32;33463;-60
2023/12/07 09:34:17;;;;;;;8.25;3.20;;;;;;;23.86;31.61;99631.19;4361800;32;34102;-61
2023/12/07 09:36:46;;;;;;;5.07;2.87;;;;;;;24.00;31.63;99628.25;4361598;32;34298;-59
2023/12/07 09:39:14;;;;;;;4.87;2.80;;;;;;;24.14;31.62;99629.69;4361939;32;34255;-59
2023/12/07 09:41:41;;;;;;;5.53;3.33;;;;;;;24.27;31.60;99624.03;4361580;32;33728;-60
2023/12/07 09:44:09;;;;;;;5.05;2.78;;;;;;;24.40;31.57;99614.81;4335920;32;35004;-59
2023/12/07 09:46:36;;;;;;;4.60;2.75;;;;;;;24.53;31.54;99611.84;4341434;33;32951;-59
2023/12/07 09:49:04;;;;;;;5.60;2.87;;;;;;;24.64;31.49;99613.72;4346741;33;33603;-60
2023/12/07 09:51:33;;;;;;;6.57;2.95;;;;;;;24.76;31.44;99618.31;4344078;33;34014;-59
2023/12/07 09:54:00;;;;;;;7.47;2.80;;;;;;;24.87;31.39;99620.22;4327503;33;34097;-60
2023/12/07 09:56:28;;;;;;;4.82;2.83;;;;;;;24.98;31.36;99621.25;4344959;33;33917;-60
2023/12/07 09:58:56;;;;;;;5.65;3.10;;;;;;;25.06;31.33;99615.44;4343126;33;33143;-59
2023/12/07 10:01:30;;;;;;;4.45;2.90;;;;;;;25.13;31.28;99627.06;4337743;33;33618;-60
2023/12/07 10:04:24;;;;;;;4.20;2.72;;;;;;;25.20;31.26;99616.84;4341322;33;33895;-59
2023/12/07 10:06:54;;;;;;;4.90;2.80;;;;;;;25.28;31.22;99619.19;4342752;33;34738;-61
2023/12/07 10:09:21;;;;;;;5.07;3.00;;;;;;;25.33;31.20;99621.19;4348996;33;32932;-63
2023/12/07 10:12:03;;;;;;;5.03;2.67;;;;;;;25.40;31.19;99619.97;4349747;32;34839;-60
2023/12/07 10:14:31;;;;;;;4.70;2.72;;;;;;;25.49;31.19;99619.56;4350863;33;33566;-59
2023/12/07 10:16:59;;;;;;;5.12;2.95;;;;;;;25.57;31.16;99617.28;4349779;33;33482;-60
2023/12/07 10:19:27;;;;;;;4.28;2.40;;;;;;;25.64;31.13;99614.38;4349790;33;33592;-60
2023/12/07 10:21:59;;;;;;;4.18;2.72;;;;;;;25.74;31.08;99621.94;4350102;32;33682;-60
2023/12/07 10:24:28;;;;;;;5.18;2.90;;;;;;;25.82;31.04;99613.37;4310986;33;33789;-59
2023/12/07 10:26:57;;;;;;;4.10;2.30;;;;;;;25.89;31.01;99623.06;4299004;33;33577;-62
2023/12/07 10:29:30;;;;;;;7.12;2.83;;;;;;;25.97;30.97;99624.56;4321954;33;32351;-64
2023/12/07 10:32:02;;;;;;;4.05;2.37;;;;;;;26.04;30.94;99627.16;4328470;33;34371;-63
2023/12/07 10:34:33;;;;;;;4.32;2.53;;;;;;;26.11;30.90;99617.72;4330899;33;35049;-61
2023/12/07 10:37:00;;;;;;;3.67;2.30;;;;;;;26.19;30.86;99620.00;4327143;33;34747;-61
2023/12/07 10:39:28;;;;;;;3.65;2.20;;;;;;;26.25;30.84;99628.28;4336045;33;32841;-61
2023/12/07 10:42:03;;;;;;;3.72;2.22;;;;;;;26.31;30.80;99621.84;4335509;33;34764;-64
2023/12/07 10:44:30;;;;;;;4.45;2.70;;;;;;;26.36;30.77;99620.00;4307490;33;33847;-64
2023/12/07 10:46:58;;;;;;;3.95;2.22;;;;;;;26.43;30.76;99611.66;4319200;33;34051;-62
2023/12/07 10:49:26;;;;;;;5.55;2.33;;;;;;;26.48;30.71;99619.09;4310788;33;33530;-62
2023/12/07 10:52:05;;;;;;;3.72;2.42;;;;;;;26.54;30.70;99626.31;4311497;33;33970;-63
2023/12/07 10:54:41;;;;;;;4.28;2.60;;;;;;;26.59;30.67;99619.00;4334654;33;33744;-60
2023/12/07 10:57:08;;;;;;;4.93;2.45;;;;;;;26.64;30.66;99624.56;4322090;33;34028;-63
2023/12/07 10:59:36;;;;;;;4.47;2.40;;;;;;;26.70;30.60;99626.28;4310628;33;33421;-63
2023/12/07 11:02:04;;;;;;;3.90;2.20;;;;;;;26.76;30.59;99626.34;4332904;33;34240;-61
2023/12/07 11:04:31;;;;;;;4.10;2.40;;;;;;;26.79;30.58;99632.12;4335518;33;35286;-60
2023/12/07 11:07:02;;;;;;;3.45;2.00;;;;;;;26.84;30.55;99634.94;4318362;33;32933;-63
2023/12/07 11:09:33;;;;;;;3.47;2.17;;;;;;;26.89;30.53;99631.44;4310917;33;33498;-62
2023/12/07 11:12:05;;;;;;;4.55;2.42;;;;;;;26.92;30.51;99630.94;4316086;33;33971;-61
2023/12/07 11:14:33;;;;;;;3.45;2.10;;;;;;;26.99;30.48;99636.22;4321068;33;33617;-64
2023/12/07 11:17:01;;;;;;;4.25;2.20;;;;;;;27.07;30.46;99636.63;4318252;33;34138;-62
2023/12/07 11:19:39;;;;;;;4.32;2.40;;;;;;;27.12;30.43;99635.87;4306638;33;34432;-65
2023/12/07 11:22:09;;;;;;;3.43;2.17;;;;;;;27.16;30.41;99635.13;4333295;33;33981;-62
2023/12/07 11:24:37;;;;;;;4.50;2.20;;;;;;;27.23;30.36;99629.44;4332945;33;33909;-61
2023/12/07 11:27:04;;;;;;;3.00;1.95;;;;;;;27.29;30.32;99631.16;4347522;32;34084;-62
2023/12/07 11:29:32;;;;;;;3.62;2.05;;;;;;;27.31;30.33;99636.38;4333013;32;34262;-62
2023/12/07 11:32:03;;;;;;;5.90;2.22;;;;;;;27.31;30.32;99631.72;4346069;32;34028;-63
2023/12/07 11:34:41;;;;;;;3.62;2.15;;;;;;;27.31;30.29;99634.47;4323326;32;34902;-63
2023/12/07 11:37:10;;;;;;;4.43;2.33;;;;;;;27.31;30.21;99633.63;4347091;33;34019;-63
2023/12/07 11:39:41;;;;;;;4.00;1.98;;;;;;;27.27;30.16;99627.84;4347813;33;33287;-63
2023/12/07 11:42:16;;;;;;;5.50;2.28;;;;;;;27.25;30.09;99627.28;4319625;33;33825;-63
2023/12/07 11:44:47;;;;;;;3.90;2.10;;;;;;;27.22;30.07;99633.25;4338059;32;34052;-63
2023/12/07 11:47:20;;;;;;;5.35;2.28;;;;;;;27.17;30.09;99630.47;4342987;32;34437;-62
2023/12/07 11:49:48;;;;;;;5.78;2.30;;;;;;;27.13;30.16;99626.56;4333301;32;33532;-62
2023/12/07 11:52:20;;;;;;;6.37;2.53;;;;;;;27.07;30.19;99638.53;4344989;32;34647;-65